createdAt,value
2019-02-27T00:00:35.725Z,118.43
2019-02-27T00:03:05.243Z,112.90
2019-02-27T00:05:33.783Z,136.00
2019-02-27T00:08:02.417Z,103.90
2019-02-27T00:10:30.883Z,118.00
2019-02-27T00:12:59.414Z,125.57
2019-02-27T00:15:27.995Z,174.17
2019-02-27T00:17:56.466Z,150.70
2019-02-27T00:20:24.935Z,158.87
2019-02-27T00:22:53.600Z,145.03
2019-02-27T00:25:22.058Z,134.73
2019-02-27T00:27:50.520Z,176.73
2019-02-27T00:30:19.251Z,186.57
2019-02-27T00:32:50.953Z,187.87
2019-02-27T00:35:18.187Z,200.93
2019-02-27T00:37:46.791Z,136.27
2019-02-27T00:40:15.243Z,130.03
2019-02-27T00:42:43.871Z,153.10
2019-02-27T00:45:12.382Z,170.70
2019-02-27T00:47:40.919Z,271.60
2019-02-27T00:50:10.126Z,135.60
2019-02-27T00:52:38.658Z,172.90
2019-02-27T00:55:08.663Z,139.53
2019-02-27T00:57:37.125Z,216.63
2019-02-27T01:00:16.563Z,130.67
2019-02-27T01:02:45.549Z,172.63
2019-02-27T01:05:14.464Z,167.60
2019-02-27T01:07:43.077Z,173.23
2019-02-27T01:10:12.978Z,548.87
2019-02-27T01:12:41.629Z,253.33
2019-02-27T01:15:12.428Z,526.03
2019-02-27T01:17:41.218Z,445.80
2019-02-27T01:20:14.463Z,314.37
2019-02-27T01:22:43.601Z,268.60
2019-02-27T01:25:12.657Z,211.87
2019-02-27T01:27:41.126Z,170.07
2019-02-27T01:30:17.062Z,164.50
2019-02-27T01:32:45.658Z,475.10
2019-02-27T01:35:17.657Z,156.90
2019-02-27T01:37:44.903Z,300.97
2019-02-27T01:40:17.407Z,212.87
2019-02-27T01:42:45.565Z,387.20
2019-02-27T01:45:20.669Z,428.17
2019-02-27T01:47:46.158Z,395.80
2019-02-27T01:50:26.494Z,385.93
2019-02-27T01:52:54.955Z,362.90
2019-02-27T01:55:42.814Z,435.93
2019-02-27T01:58:11.270Z,467.93
2019-02-27T02:00:40.070Z,408.10
2019-02-27T02:03:11.170Z,576.00
2019-02-27T02:05:38.930Z,268.93
2019-02-27T02:08:10.885Z,517.43
2019-02-27T02:10:38.637Z,384.33
2019-02-27T02:13:14.782Z,869.90
2019-02-27T02:16:02.834Z,786.40
2019-02-27T02:18:49.503Z,1060.80
2019-02-27T02:21:32.092Z,1023.87
2019-02-27T02:24:11.817Z,243.83
2019-02-27T02:27:01.528Z,670.93
2019-02-27T02:29:55.769Z,929.03
2019-02-27T02:32:52.040Z,219.73
2019-02-27T02:35:30.611Z,207.70
2019-02-27T02:38:11.999Z,183.87
2019-02-27T02:40:53.256Z,230.10
2019-02-27T02:43:27.747Z,236.13
2019-02-27T02:46:11.517Z,228.53
2019-02-27T02:48:57.731Z,193.57
2019-02-27T02:51:34.895Z,221.70
2019-02-27T02:54:38.294Z,260.90
2019-02-27T02:57:15.553Z,232.70
2019-02-27T02:59:59.448Z,262.50
2019-02-27T03:02:45.266Z,229.30
2019-02-27T03:05:34.833Z,228.03
2019-02-27T03:08:55.052Z,220.40
2019-02-27T03:11:35.231Z,234.10
2019-02-27T03:14:17.667Z,221.83
2019-02-27T03:17:05.473Z,211.10
2019-02-27T03:19:45.753Z,203.73
2019-02-27T03:22:40.349Z,208.30
2019-02-27T03:25:24.849Z,181.70
2019-02-27T03:28:17.420Z,165.27
2019-02-27T03:30:51.589Z,169.27
2019-02-27T03:34:05.707Z,183.80
2019-02-27T03:37:04.767Z,202.07
2019-02-27T03:39:54.239Z,161.10
2019-02-27T03:42:37.566Z,183.63
2019-02-27T03:45:44.967Z,183.47
2019-02-27T03:48:30.834Z,180.93
2019-02-27T03:51:08.371Z,169.83
2019-02-27T03:53:46.604Z,177.00
2019-02-27T03:56:21.433Z,177.13
2019-02-27T03:59:08.131Z,167.20
2019-02-27T04:01:42.709Z,182.47
2019-02-27T04:04:32.216Z,165.83
2019-02-27T04:07:03.783Z,149.43
2019-02-27T04:09:32.276Z,152.97
2019-02-27T04:12:00.869Z,162.40
2019-02-27T04:14:31.736Z,167.03
2019-02-27T04:17:05.393Z,169.57
2019-02-27T04:19:31.250Z,166.90
2019-02-27T04:22:19.226Z,166.17
2019-02-27T04:24:47.761Z,148.20
2019-02-27T04:27:20.074Z,161.10
2019-02-27T04:29:46.457Z,169.87
2019-02-27T04:32:14.918Z,166.77
2019-02-27T04:34:43.398Z,148.33
2019-02-27T04:37:11.997Z,158.67
2019-02-27T04:39:40.458Z,143.27
2019-02-27T04:42:08.923Z,156.43
2019-02-27T04:44:38.889Z,174.17
2019-02-27T04:47:07.581Z,165.37
2019-02-27T04:49:37.804Z,171.77
2019-02-27T04:52:06.286Z,175.50
2019-02-27T04:54:35.107Z,159.50
2019-02-27T04:57:03.660Z,140.57
2019-02-27T04:59:32.140Z,169.77
2019-02-27T05:02:00.605Z,170.50
2019-02-27T05:04:29.113Z,161.33
2019-02-27T05:06:57.656Z,155.73
2019-02-27T05:09:26.121Z,161.97
2019-02-27T05:11:54.624Z,141.17
2019-02-27T05:14:24.903Z,158.17
2019-02-27T05:16:53.301Z,144.73
2019-02-27T05:19:21.759Z,139.07
2019-02-27T05:21:52.579Z,141.37
2019-02-27T05:24:20.461Z,143.87
2019-02-27T05:26:48.919Z,139.27
2019-02-27T05:29:17.422Z,126.33
2019-02-27T05:31:45.956Z,150.30
2019-02-27T05:34:14.417Z,140.37
2019-02-27T05:36:42.928Z,141.33
2019-02-27T05:39:11.383Z,139.07
2019-02-27T05:41:39.857Z,143.47
2019-02-27T05:44:08.350Z,132.43
2019-02-27T05:46:38.299Z,133.27
2019-02-27T05:49:06.989Z,139.07
2019-02-27T05:51:35.563Z,130.17
2019-02-27T05:54:04.019Z,119.10
2019-02-27T05:56:32.558Z,123.27
2019-02-27T05:59:01.162Z,121.83
2019-02-27T06:01:29.615Z,131.50
2019-02-27T06:03:58.095Z,115.63
2019-02-27T06:06:26.612Z,115.40
2019-02-27T06:08:55.084Z,114.90
2019-02-27T06:11:23.547Z,115.73
2019-02-27T06:13:52.043Z,107.93
2019-02-27T06:16:20.568Z,117.67
2019-02-27T06:18:49.104Z,115.33
2019-02-27T06:21:17.631Z,116.90
2019-02-27T06:23:46.180Z,110.37
2019-02-27T06:26:14.703Z,112.23
2019-02-27T06:28:43.188Z,112.07
2019-02-27T06:31:11.659Z,122.33
2019-02-27T06:33:40.111Z,124.80
2019-02-27T06:36:08.720Z,114.27
2019-02-27T06:38:37.183Z,120.80
2019-02-27T06:41:25.022Z,111.60
2019-02-27T06:43:53.562Z,111.53
2019-02-27T06:46:22.097Z,110.40
2019-02-27T06:48:50.630Z,110.10
2019-02-27T06:51:19.240Z,111.03
2019-02-27T06:53:47.710Z,112.00
2019-02-27T06:56:16.209Z,109.30
2019-02-27T06:58:44.762Z,113.57
2019-02-27T07:01:13.336Z,119.47
2019-02-27T07:03:41.871Z,108.93
2019-02-27T07:06:10.320Z,90.67
2019-02-27T07:08:38.792Z,91.30
2019-02-27T07:11:10.633Z,109.40
2019-02-27T07:13:37.744Z,107.23
2019-02-27T07:16:06.278Z,102.33
2019-02-27T07:18:36.482Z,97.57
2019-02-27T07:21:05.248Z,100.80
2019-02-27T07:23:35.199Z,97.73
2019-02-27T07:26:04.168Z,108.73
2019-02-27T07:28:32.709Z,104.17
2019-02-27T07:31:01.247Z,103.57
2019-02-27T07:33:29.745Z,103.03
2019-02-27T07:35:58.232Z,107.57
2019-02-27T07:38:26.742Z,92.20
2019-02-27T07:40:55.252Z,90.87
2019-02-27T07:43:23.789Z,94.57
2019-02-27T07:45:54.212Z,92.93
2019-02-27T07:48:22.475Z,95.37
2019-02-27T07:50:51.010Z,97.60
2019-02-27T07:53:19.464Z,83.10
2019-02-27T07:55:48.269Z,87.70
2019-02-27T07:58:16.784Z,90.13
2019-02-27T08:00:47.193Z,87.87
2019-02-27T08:03:15.455Z,85.80
2019-02-27T08:05:43.921Z,83.90
2019-02-27T08:08:12.371Z,90.53
2019-02-27T08:10:40.881Z,79.67
2019-02-27T08:13:09.416Z,82.93
2019-02-27T08:15:37.885Z,81.40
2019-02-27T08:18:06.519Z,85.47
2019-02-27T08:20:35.076Z,80.90
2019-02-27T08:23:03.530Z,83.27
2019-02-27T08:25:32.113Z,83.13
2019-02-27T08:28:00.589Z,85.40
2019-02-27T08:30:29.576Z,80.40
2019-02-27T08:32:58.079Z,86.47
2019-02-27T08:35:26.535Z,83.63
2019-02-27T08:38:02.103Z,81.87
2019-02-27T08:40:25.395Z,80.63
2019-02-27T08:42:54.028Z,84.53
2019-02-27T08:45:26.651Z,73.43
2019-02-27T08:47:53.222Z,83.43
2019-02-27T08:50:23.092Z,78.53
2019-02-27T08:52:51.931Z,79.20
2019-02-27T08:55:42.936Z,76.83
2019-02-27T08:58:11.387Z,74.37
2019-02-27T09:00:39.905Z,78.07
2019-02-27T09:03:08.559Z,71.00
2019-02-27T09:05:37.012Z,72.57
2019-02-27T09:08:07.380Z,73.80
2019-02-27T09:10:35.767Z,72.63
2019-02-27T09:13:05.867Z,67.87
2019-02-27T09:15:34.640Z,70.80
2019-02-27T09:18:03.220Z,72.43
2019-02-27T09:20:31.761Z,71.37
2019-02-27T09:23:00.279Z,71.30
2019-02-27T09:25:28.874Z,70.17
2019-02-27T09:27:57.421Z,67.83
2019-02-27T09:30:29.337Z,65.67
2019-02-27T09:32:56.918Z,66.20
2019-02-27T09:35:25.374Z,72.33
2019-02-27T09:37:53.904Z,64.13
2019-02-27T09:40:41.839Z,64.83
2019-02-27T09:43:11.681Z,70.47
2019-02-27T09:45:40.405Z,63.70
2019-02-27T09:48:09.192Z,64.60
2019-02-27T09:50:48.143Z,63.17
2019-02-27T09:53:15.668Z,66.80
2019-02-27T09:55:44.142Z,63.63
2019-02-27T09:58:12.939Z,62.60
2019-02-27T10:00:59.154Z,62.47
2019-02-27T10:03:25.949Z,61.07
2019-02-27T10:05:54.612Z,60.43
2019-02-27T10:08:25.258Z,61.60
2019-02-27T10:10:53.289Z,58.30
2019-02-27T10:13:21.744Z,62.10
2019-02-27T10:15:50.251Z,57.70
2019-02-27T10:18:21.856Z,57.70
2019-02-27T10:20:49.152Z,57.10
2019-02-27T10:23:17.644Z,55.57
2019-02-27T10:25:46.110Z,57.63
2019-02-27T10:28:14.639Z,58.00
2019-02-27T10:30:43.217Z,56.00
2019-02-27T10:33:11.911Z,60.90
2019-02-27T10:35:40.655Z,55.77
2019-02-27T10:38:09.244Z,55.83
2019-02-27T10:40:37.857Z,54.60
2019-02-27T10:43:06.460Z,54.83
2019-02-27T10:45:35.077Z,53.07
2019-02-27T10:48:03.553Z,49.60
2019-02-27T10:50:32.012Z,49.87
2019-02-27T10:53:00.620Z,51.60
2019-02-27T10:55:29.235Z,49.97
2019-02-27T10:57:57.786Z,51.87
2019-02-27T11:00:32.770Z,53.20
2019-02-27T11:03:01.881Z,49.03
2019-02-27T11:05:33.135Z,49.03
2019-02-27T11:08:01.749Z,53.27
2019-02-27T11:10:30.449Z,48.33
2019-02-27T11:12:59.149Z,45.47
2019-02-27T11:15:27.714Z,44.90
2019-02-27T11:17:56.256Z,47.53
2019-02-27T11:20:44.205Z,42.47
2019-02-27T11:23:12.716Z,41.67
2019-02-27T11:25:41.180Z,40.03
2019-02-27T11:28:09.934Z,41.03
2019-02-27T11:30:40.915Z,41.23
2019-02-27T11:33:09.562Z,42.97
2019-02-27T11:35:38.258Z,43.30
2019-02-27T11:38:07.054Z,38.00
2019-02-27T11:40:35.638Z,39.87
2019-02-27T11:43:06.972Z,37.57
2019-02-27T11:45:34.705Z,34.63
2019-02-27T11:48:03.357Z,33.17
2019-02-27T11:50:32.162Z,37.00
2019-02-27T11:53:02.789Z,34.27
2019-02-27T11:55:30.987Z,34.23
2019-02-27T11:58:04.407Z,34.80
2019-02-27T12:00:31.324Z,36.33
2019-02-27T12:03:00.144Z,33.40
2019-02-27T12:05:33.869Z,33.93
2019-02-27T12:07:59.504Z,33.23
2019-02-27T12:10:31.628Z,30.63
2019-02-27T12:13:01.412Z,31.63
2019-02-27T12:15:30.339Z,34.80
2019-02-27T12:18:00.600Z,33.20
2019-02-27T12:20:29.250Z,27.57
2019-02-27T12:22:57.786Z,30.67
2019-02-27T12:25:28.992Z,32.87
2019-02-27T12:27:57.003Z,33.57
2019-02-27T12:30:30.202Z,35.70
2019-02-27T12:32:59.007Z,30.27
2019-02-27T12:35:29.943Z,32.60
2019-02-27T12:37:58.525Z,31.50
2019-02-27T12:40:27.263Z,32.57
2019-02-27T12:42:55.938Z,28.00
2019-02-27T12:45:27.784Z,28.60
2019-02-27T12:47:57.079Z,29.47
2019-02-27T12:50:31.150Z,24.00
2019-02-27T12:52:59.006Z,28.37
2019-02-27T12:55:27.917Z,22.87
2019-02-27T12:57:56.546Z,25.00
2019-02-27T13:00:29.893Z,23.47
2019-02-27T13:02:59.081Z,20.60
2019-02-27T13:05:28.836Z,28.67
2019-02-27T13:07:57.623Z,22.77
2019-02-27T13:10:32.997Z,23.00
2019-02-27T13:12:59.217Z,24.60
2019-02-27T13:15:28.663Z,25.40
2019-02-27T13:17:58.005Z,27.83
2019-02-27T13:20:28.939Z,20.50
2019-02-27T13:22:57.492Z,23.77
2019-02-27T13:25:26.373Z,24.10
2019-02-27T13:27:54.896Z,21.80
2019-02-27T13:30:25.561Z,23.27
2019-02-27T13:32:54.244Z,20.83
2019-02-27T13:35:23.860Z,23.50
2019-02-27T13:37:52.674Z,20.60
2019-02-27T13:40:26.578Z,24.17
2019-02-27T13:42:55.023Z,23.70
2019-02-27T13:45:26.583Z,22.17
2019-02-27T13:47:55.306Z,22.70
2019-02-27T13:50:26.680Z,24.23
2019-02-27T13:52:54.580Z,22.83
2019-02-27T13:55:24.031Z,23.00
2019-02-27T13:57:52.637Z,26.20
2019-02-27T14:00:29.393Z,25.53
2019-02-27T14:02:57.994Z,23.07
2019-02-27T14:05:26.710Z,23.23
2019-02-27T14:07:58.518Z,24.27
2019-02-27T14:10:28.461Z,21.27
2019-02-27T14:12:57.165Z,21.60
2019-02-27T14:15:27.241Z,24.00
2019-02-27T14:17:56.281Z,21.90
2019-02-27T14:20:26.911Z,22.57
2019-02-27T14:22:55.278Z,23.90
2019-02-27T14:25:31.855Z,24.40
2019-02-27T14:27:56.548Z,26.67
2019-02-27T14:30:35.546Z,24.30
2019-02-27T14:33:04.059Z,22.57
2019-02-27T14:35:36.226Z,26.37
2019-02-27T14:38:03.030Z,23.80
2019-02-27T14:40:31.551Z,22.67
2019-02-27T14:43:00.086Z,24.90
2019-02-27T14:45:28.617Z,23.73
2019-02-27T14:47:57.073Z,28.70
2019-02-27T14:50:26.073Z,27.80
2019-02-27T14:52:54.747Z,28.27
2019-02-27T14:55:23.485Z,30.00
2019-02-27T14:57:51.947Z,25.07
2019-02-27T15:00:34.185Z,25.70
2019-02-27T15:03:02.734Z,25.37
2019-02-27T15:05:31.333Z,28.90
2019-02-27T15:08:00.010Z,28.63
2019-02-27T15:10:28.544Z,27.43
2019-02-27T15:12:57.088Z,29.20
2019-02-27T15:15:28.100Z,28.40
2019-02-27T15:17:56.631Z,25.87
2019-02-27T15:20:27.034Z,29.23
2019-02-27T15:22:55.897Z,29.20
2019-02-27T15:25:24.504Z,29.73
2019-02-27T15:27:53.045Z,32.53
2019-02-27T15:30:32.310Z,33.40
2019-02-27T15:33:03.549Z,32.80
2019-02-27T15:35:31.049Z,35.90
2019-02-27T15:37:59.702Z,34.77
2019-02-27T15:40:30.187Z,34.97
2019-02-27T15:42:59.376Z,36.17
2019-02-27T15:45:29.005Z,36.00
2019-02-27T15:47:57.758Z,38.60
2019-02-27T15:50:31.688Z,35.27
2019-02-27T15:53:00.386Z,36.53
2019-02-27T15:55:42.322Z,34.63
2019-02-27T15:58:10.966Z,33.67
2019-02-27T16:00:39.502Z,34.37
2019-02-27T16:03:10.689Z,36.77
2019-02-27T16:05:40.088Z,34.03
2019-02-27T16:08:08.557Z,39.33
2019-02-27T16:10:42.621Z,37.50
2019-02-27T16:13:07.451Z,31.83
2019-02-27T16:15:35.909Z,36.07
2019-02-27T16:18:05.288Z,34.67
2019-02-27T16:20:34.017Z,36.93
2019-02-27T16:23:05.056Z,38.80
2019-02-27T16:25:32.664Z,37.17
2019-02-27T16:28:01.172Z,41.90
2019-02-27T16:30:33.001Z,35.47
2019-02-27T16:33:01.735Z,39.73
2019-02-27T16:35:30.372Z,37.17
2019-02-27T16:37:58.902Z,37.83
2019-02-27T16:40:28.716Z,40.93
2019-02-27T16:42:57.397Z,37.03
2019-02-27T16:45:37.518Z,40.40
2019-02-27T16:48:27.197Z,44.07
2019-02-27T16:50:57.353Z,42.07
2019-02-27T16:53:25.925Z,39.70
2019-02-27T16:55:54.492Z,39.20
2019-02-27T16:58:23.031Z,42.60
2019-02-27T17:00:54.412Z,46.10
2019-02-27T17:03:22.200Z,39.77
2019-02-27T17:05:50.663Z,38.23
2019-02-27T17:08:19.200Z,44.47
2019-02-27T17:10:51.698Z,38.87
2019-02-27T17:13:18.034Z,44.27
2019-02-27T17:15:46.554Z,43.10
2019-02-27T17:18:15.233Z,38.47
2019-02-27T17:20:46.574Z,43.53
2019-02-27T17:23:13.901Z,40.53
2019-02-27T17:25:42.476Z,40.40
2019-02-27T17:28:10.958Z,38.37
2019-02-27T17:30:39.494Z,41.93
2019-02-27T17:33:08.019Z,39.70
2019-02-27T17:35:36.499Z,43.13
2019-02-27T17:38:05.204Z,45.60
2019-02-27T17:40:36.897Z,42.73
2019-02-27T17:43:06.522Z,46.73
2019-02-27T17:45:54.529Z,44.20
2019-02-27T17:48:23.107Z,38.90
2019-02-27T17:50:51.697Z,40.60
2019-02-27T17:53:20.470Z,37.23
2019-02-27T17:55:50.465Z,37.20
2019-02-27T17:58:19.158Z,34.43
2019-02-27T18:00:52.056Z,34.33
2019-02-27T18:03:20.535Z,30.77
2019-02-27T18:05:49.088Z,33.80
2019-02-27T18:08:17.576Z,33.97
2019-02-27T18:10:46.049Z,34.60
2019-02-27T18:13:14.506Z,35.53
2019-02-27T18:15:43.100Z,40.67
2019-02-27T18:18:11.795Z,40.60
2019-02-27T18:20:40.266Z,43.67
2019-02-27T18:23:08.852Z,45.67
2019-02-27T18:25:41.179Z,48.10
2019-02-27T18:28:07.572Z,46.43
2019-02-27T18:30:36.232Z,48.23
2019-02-27T18:33:04.845Z,48.20
2019-02-27T18:35:33.393Z,48.57
2019-02-27T18:38:02.001Z,50.87
2019-02-27T18:40:30.668Z,49.97
2019-02-27T18:42:59.174Z,48.57
2019-02-27T18:45:28.997Z,52.03
2019-02-27T18:47:58.745Z,53.33
2019-02-27T18:50:27.569Z,55.57
2019-02-27T18:52:56.206Z,54.10
2019-02-27T18:55:29.278Z,53.10
2019-02-27T18:57:55.020Z,56.00
2019-02-27T19:00:25.329Z,57.00
2019-02-27T19:03:02.133Z,54.50
2019-02-27T19:05:30.633Z,54.80
2019-02-27T19:07:59.243Z,57.57
2019-02-27T19:10:27.758Z,59.77
2019-02-27T19:12:56.352Z,58.07
2019-02-27T19:15:26.421Z,58.40
2019-02-27T19:17:55.341Z,59.10
2019-02-27T19:20:44.109Z,58.57
2019-02-27T19:23:17.181Z,61.37
2019-02-27T19:25:43.186Z,57.83
2019-02-27T19:28:12.303Z,62.80
2019-02-27T19:30:41.619Z,60.90
2019-02-27T19:33:11.284Z,58.43
2019-02-27T19:35:39.781Z,60.40
2019-02-27T19:38:12.544Z,61.47
2019-02-27T19:40:38.698Z,59.10
2019-02-27T19:43:07.280Z,64.77
2019-02-27T19:45:36.863Z,63.80
2019-02-27T19:48:05.737Z,56.93
2019-02-27T19:50:35.320Z,61.70
2019-02-27T19:53:06.815Z,58.70
2019-02-27T19:55:34.563Z,59.83
2019-02-27T19:58:03.165Z,58.77
2019-02-27T20:00:34.897Z,59.33
2019-02-27T20:03:03.073Z,59.97
2019-02-27T20:05:31.865Z,58.97
2019-02-27T20:08:02.400Z,62.20
2019-02-27T20:10:33.152Z,61.13
2019-02-27T20:13:00.895Z,57.20
2019-02-27T20:15:29.511Z,60.20
2019-02-27T20:17:58.048Z,59.53
2019-02-27T20:20:26.765Z,60.50
2019-02-27T20:22:55.611Z,57.67
2019-02-27T20:25:29.618Z,57.53
2019-02-27T20:27:58.890Z,58.53
2019-02-27T20:30:27.748Z,57.83
2019-02-27T20:32:56.412Z,57.43
2019-02-27T20:35:24.952Z,56.73
2019-02-27T20:37:53.678Z,57.83
2019-02-27T20:40:22.506Z,57.17
2019-02-27T20:42:54.966Z,57.53
2019-02-27T20:45:22.738Z,55.87
2019-02-27T20:47:57.764Z,57.77
2019-02-27T20:50:41.547Z,59.63
2019-02-27T20:53:12.283Z,58.83
2019-02-27T20:55:40.850Z,55.13
2019-02-27T20:58:09.535Z,58.73
2019-02-27T21:00:38.102Z,56.43
2019-02-27T21:03:06.728Z,55.07
2019-02-27T21:05:35.214Z,65.40
2019-02-27T21:08:04.036Z,58.43
2019-02-27T21:10:36.029Z,59.53
2019-02-27T21:13:04.849Z,58.87
2019-02-27T21:15:34.217Z,56.77
2019-02-27T21:18:02.962Z,60.07
2019-02-27T21:20:33.127Z,63.80
2019-02-27T21:23:01.743Z,64.80
2019-02-27T21:25:30.303Z,62.27
2019-02-27T21:27:58.832Z,62.07
2019-02-27T21:30:27.709Z,59.97
2019-02-27T21:32:56.312Z,61.83
2019-02-27T21:35:28.738Z,68.40
2019-02-27T21:37:55.390Z,65.70
2019-02-27T21:40:24.140Z,68.20
2019-02-27T21:42:52.607Z,61.23
2019-02-27T21:45:24.871Z,66.27
2019-02-27T21:47:53.556Z,65.57
2019-02-27T21:50:26.605Z,67.50
2019-02-27T21:52:55.848Z,72.00
2019-02-27T21:55:25.249Z,63.90
2019-02-27T21:57:53.788Z,66.70
2019-02-27T22:00:26.951Z,72.87
2019-02-27T22:02:56.847Z,70.40
2019-02-27T22:05:25.582Z,70.37
2019-02-27T22:07:54.552Z,70.20
2019-02-27T22:10:23.084Z,72.80
2019-02-27T22:12:51.616Z,70.90
2019-02-27T22:15:30.140Z,75.60
2019-02-27T22:17:58.767Z,74.23
2019-02-27T22:20:27.369Z,77.00
2019-02-27T22:22:55.878Z,77.23
2019-02-27T22:25:30.179Z,79.77
2019-02-27T22:27:54.832Z,75.80
2019-02-27T22:30:23.781Z,72.77
2019-02-27T22:32:52.667Z,76.87
2019-02-27T22:35:21.293Z,76.20
2019-02-27T22:37:52.427Z,75.73
2019-02-27T22:40:44.160Z,76.37
2019-02-27T22:43:12.682Z,81.23
2019-02-27T22:45:43.983Z,77.13
2019-02-27T22:48:11.352Z,82.63
2019-02-27T22:50:41.255Z,81.37
2019-02-27T22:53:10.201Z,84.07
2019-02-27T22:55:42.252Z,84.53
2019-02-27T22:58:09.028Z,84.47
2019-02-27T23:00:56.101Z,83.00
2019-02-27T23:03:35.878Z,81.67
2019-02-27T23:06:05.318Z,84.87
2019-02-27T23:08:34.150Z,85.40
2019-02-27T23:11:03.761Z,90.63
2019-02-27T23:13:32.482Z,86.20
2019-02-27T23:16:01.129Z,92.13
2019-02-27T23:18:30.600Z,91.37
2019-02-27T23:20:59.115Z,86.50
2019-02-27T23:23:27.636Z,90.80
2019-02-27T23:25:56.308Z,81.17
2019-02-27T23:28:24.768Z,84.30
2019-02-27T23:30:53.639Z,80.60
2019-02-27T23:33:24.539Z,83.37
2019-02-27T23:35:52.432Z,82.37
2019-02-27T23:38:20.895Z,79.67
2019-02-27T23:40:50.131Z,84.43
2019-02-27T23:43:19.736Z,84.53
2019-02-27T23:45:48.393Z,85.17
2019-02-27T23:48:16.958Z,78.20
2019-02-27T23:50:45.415Z,81.37
2019-02-27T23:53:15.189Z,80.10
2019-02-27T23:55:44.643Z,81.90
2019-02-27T23:58:13.996Z,82.67
